Time;durP1;ratioP1;P1;durP2;ratioP2;P2;SDS_P1;SDS_P2;PMS_P1;PMS_P2;Temp;Humidity;BMP_temperature;BMP_pressure;BME280_temperature;BME280_humidity;BME280_pressure;Samples;Min_cycle;Max_cycle;Signal;HPM_P1;HPM_P2
2021/12/15 00:02:19;;;;;;;5.13;4.93;;;16.90;66.70;;;;;;5047517;28;44090;-69
2021/12/15 00:04:50;;;;;;;5.10;4.90;;;16.90;66.80;;;;;;5047093;28;43918;-70
2021/12/15 00:07:19;;;;;;;4.90;4.70;;;16.80;67.00;;;;;;5047962;28;43908;-70
2021/12/15 00:09:47;;;;;;;5.10;4.80;;;16.80;67.20;;;;;;5041147;28;43738;-70
2021/12/15 00:12:16;;;;;;;5.10;4.90;;;16.70;67.20;;;;;;5029272;28;44313;-69
2021/12/15 00:14:44;;;;;;;4.67;4.47;;;16.70;67.40;;;;;;5047380;28;43980;-69
2021/12/15 00:17:13;;;;;;;4.80;4.60;;;16.70;67.40;;;;;;5047581;28;44008;-70
2021/12/15 00:19:41;;;;;;;5.17;4.97;;;16.70;67.50;;;;;;5047225;28;43756;-69
2021/12/15 00:22:09;;;;;;;5.17;4.97;;;16.70;67.70;;;;;;5028970;28;44724;-70
2021/12/15 00:24:39;;;;;;;4.90;4.70;;;16.80;67.50;;;;;;5047227;28;43827;-69
2021/12/15 00:27:07;;;;;;;4.90;4.70;;;16.90;67.20;;;;;;5047389;28;43942;-70
2021/12/15 00:29:35;;;;;;;4.83;4.63;;;17.00;66.60;;;;;;5046969;28;43859;-70
2021/12/15 00:32:04;;;;;;;5.00;4.80;;;17.10;66.40;;;;;;5046833;28;43973;-70
2021/12/15 00:34:33;;;;;;;4.67;4.47;;;17.10;66.30;;;;;;5046984;28;44047;-70
2021/12/15 00:37:02;;;;;;;4.40;4.27;;;17.00;66.40;;;;;;5047468;28;43838;-70
2021/12/15 00:39:30;;;;;;;4.67;4.57;;;17.00;66.60;;;;;;5046993;28;44246;-70
2021/12/15 00:42:00;;;;;;;4.70;4.50;;;16.90;67.00;;;;;;5046781;28;44088;-71
2021/12/15 00:44:28;;;;;;;4.97;4.67;;;16.90;67.00;;;;;;5028956;28;43336;-70
2021/12/15 00:46:56;;;;;;;5.13;4.93;;;16.80;67.10;;;;;;5029353;28;44051;-71
2021/12/15 00:49:24;;;;;;;5.43;5.23;;;16.80;67.20;;;;;;5046884;28;43926;-70
2021/12/15 00:51:53;;;;;;;4.90;4.70;;;16.70;67.30;;;;;;5045710;28;43398;-69
2021/12/15 00:54:22;;;;;;;4.80;4.60;;;16.70;67.40;;;;;;5046937;28;43978;-71
2021/12/15 00:56:50;;;;;;;5.30;5.10;;;16.70;67.50;;;;;;5047421;28;44273;-69
2021/12/15 00:59:20;;;;;;;4.97;4.77;;;16.60;67.50;;;;;;5046523;28;43944;-69
2021/12/15 01:01:48;;;;;;;5.20;5.00;;;16.70;67.80;;;;;;5046496;28;43972;-70
2021/12/15 01:04:17;;;;;;;5.30;5.00;;;16.80;67.50;;;;;;5027809;28;43952;-70
2021/12/15 01:06:48;;;;;;;4.80;4.60;;;16.90;67.10;;;;;;5047055;28;43932;-70
2021/12/15 01:09:19;;;;;;;5.47;5.27;;;16.90;66.80;;;;;;5046630;28;43772;-70
2021/12/15 01:12:06;;;;;;;4.90;4.70;;;16.90;66.80;;;;;;5046503;28;43946;-70
2021/12/15 01:20:08;;;;;;;5.10;4.90;;;16.80;67.20;;;;;;5028213;28;46052;-71
2021/12/15 01:22:39;;;;;;;4.50;4.40;;;16.70;67.30;;;;;;5046470;28;44022;-70
2021/12/15 01:25:09;;;;;;;5.10;4.90;;;16.70;67.40;;;;;;5046413;28;43872;-70
2021/12/15 01:27:37;;;;;;;4.93;4.70;;;16.70;67.60;;;;;;5046807;28;43979;-70
2021/12/15 01:30:09;;;;;;;5.00;4.80;;;16.60;67.50;;;;;;5046313;28;43732;-70
2021/12/15 01:32:37;;;;;;;5.70;5.40;;;16.60;68.30;;;;;;5028103;28;44516;-69
2021/12/15 01:35:05;;;;;;;5.33;5.13;;;16.60;67.70;;;;;;5046199;28;44031;-70
2021/12/15 01:37:33;;;;;;;5.20;5.00;;;16.60;67.70;;;;;;5028431;28;43913;-70
2021/12/15 01:40:01;;;;;;;5.40;5.20;;;16.60;67.90;;;;;;5027906;28;45768;-70
2021/12/15 01:42:32;;;;;;;5.33;5.13;;;16.70;67.80;;;;;;5046129;28;43333;-70
2021/12/15 01:47:47;;;;;;;4.83;4.63;;;17.00;67.10;;;;;;5042443;28;43907;-70
2021/12/15 01:50:15;;;;;;;5.17;4.97;;;17.10;66.50;;;;;;5027962;28;45648;-71
2021/12/15 01:52:44;;;;;;;5.73;5.43;;;17.20;66.10;;;;;;5027832;28;43992;-70
2021/12/15 01:55:18;;;;;;;5.13;4.93;;;17.20;66.00;;;;;;5046080;28;44041;-70
2021/12/15 01:57:46;;;;;;;4.87;4.67;;;17.10;66.00;;;;;;5028227;28;43965;-70
2021/12/15 02:00:17;;;;;;;4.97;4.77;;;17.00;66.30;;;;;;5027609;28;45417;-69
2021/12/15 02:02:47;;;;;;;5.03;4.73;;;17.00;66.60;;;;;;5027792;28;44723;-70
2021/12/15 02:05:15;;;;;;;5.00;4.80;;;16.90;66.80;;;;;;5030601;28;43540;-70
2021/12/15 02:07:43;;;;;;;5.40;5.20;;;16.90;67.00;;;;;;5031616;28;43925;-70
2021/12/15 02:10:11;;;;;;;4.93;4.83;;;16.80;67.10;;;;;;5049137;28;43945;-70
2021/12/15 02:12:56;;;;;;;5.10;4.90;;;16.80;67.30;;;;;;5031108;28;44742;-70
2021/12/15 02:15:25;;;;;;;4.97;4.77;;;16.70;67.30;;;;;;5043119;28;44036;-70
2021/12/15 02:17:55;;;;;;;5.37;5.17;;;16.70;67.40;;;;;;5025020;28;44147;-69
2021/12/15 02:20:30;;;;;;;5.07;4.90;;;16.70;67.60;;;;;;5031027;28;45336;-70
2021/12/15 02:22:58;;;;;;;5.87;5.57;;;16.80;67.50;;;;;;5030930;28;44357;-69
2021/12/15 02:25:26;;;;;;;5.30;5.10;;;16.90;67.00;;;;;;5049225;28;43886;-70
2021/12/15 02:27:54;;;;;;;5.20;5.00;;;16.90;66.70;;;;;;5049561;28;43964;-70
2021/12/15 02:30:40;;;;;;;4.87;4.67;;;16.90;66.70;;;;;;5049141;28;43579;-71
2021/12/15 02:33:25;;;;;;;5.20;5.00;;;16.90;66.90;;;;;;5030712;28;45473;-70
2021/12/15 02:38:42;;;;;;;5.67;5.47;;;16.80;67.20;;;;;;5031112;28;43953;-69
2021/12/15 02:41:19;;;;;;;5.30;5.10;;;16.70;67.30;;;;;;5030623;28;46432;-70
2021/12/15 02:43:48;;;;;;;5.17;4.97;;;16.70;67.40;;;;;;5030658;28;43830;-70
2021/12/15 02:46:16;;;;;;;4.80;4.70;;;16.70;68.20;;;;;;5048855;28;43992;-70
2021/12/15 02:48:44;;;;;;;5.17;4.97;;;16.70;67.60;;;;;;5049175;28;43968;-70
2021/12/15 02:51:14;;;;;;;4.97;4.77;;;16.60;67.60;;;;;;5048390;28;43863;-70
2021/12/15 02:53:42;;;;;;;4.83;4.70;;;16.60;67.60;;;;;;5048438;28;43973;-70
2021/12/15 02:56:10;;;;;;;5.33;5.13;;;16.60;67.70;;;;;;5048751;28;43936;-70
2021/12/15 02:58:47;;;;;;;4.97;4.77;;;16.60;67.90;;;;;;5048970;28;43838;-70
2021/12/15 03:01:22;;;;;;;5.30;5.10;;;16.70;67.70;;;;;;5048629;28;44820;-70
2021/12/15 03:06:39;;;;;;;4.93;4.77;;;17.00;66.90;;;;;;5046505;28;43881;-69
2021/12/15 03:09:32;;;;;;;5.37;5.07;;;17.10;66.40;;;;;;5048997;28;43836;-69
2021/12/15 03:17:30;;;;;;;4.80;4.70;;;17.00;66.20;;;;;;5048592;28;43886;-69
2021/12/15 03:19:58;;;;;;;5.00;4.80;;;17.00;66.60;;;;;;5030347;28;43950;-70
2021/12/15 03:22:27;;;;;;;4.63;4.43;;;16.90;66.80;;;;;;5048110;28;44076;-70
2021/12/15 03:24:55;;;;;;;5.23;5.03;;;16.80;66.90;;;;;;5048025;28;43869;-70
2021/12/15 03:33:14;;;;;;;4.67;4.57;;;16.80;67.20;;;;;;5048347;28;43964;-69
2021/12/15 03:36:03;;;;;;;4.70;4.60;;;16.60;67.50;;;;;;5005533;28;43970;-70
2021/12/15 03:38:34;;;;;;;5.07;4.87;;;16.60;67.70;;;;;;5017748;28;44038;-69
2021/12/15 03:41:02;;;;;;;5.57;5.37;;;16.70;67.70;;;;;;5048512;28;44008;-69
2021/12/15 03:43:31;;;;;;;4.80;4.60;;;16.80;67.20;;;;;;5029642;28;46449;-70
2021/12/15 03:46:00;;;;;;;5.00;4.80;;;16.80;66.90;;;;;;5047876;28;43776;-69
2021/12/15 03:48:30;;;;;;;4.67;4.57;;;16.80;66.80;;;;;;5029655;28;43997;-71
2021/12/15 03:50:58;;;;;;;4.50;4.40;;;16.80;67.00;;;;;;5048008;28;43918;-70
2021/12/15 03:53:26;;;;;;;4.20;4.10;;;16.80;67.10;;;;;;5047472;28;44005;-69
2021/12/15 03:55:56;;;;;;;4.53;4.43;;;16.70;67.20;;;;;;5047717;28;44016;-70
2021/12/15 03:58:26;;;;;;;4.60;4.47;;;16.70;67.30;;;;;;5047612;28;43957;-70
2021/12/15 04:00:56;;;;;;;5.03;4.83;;;16.70;67.40;;;;;;5048129;28;43442;-70
2021/12/15 04:03:29;;;;;;;4.47;4.37;;;16.60;67.50;;;;;;5047634;28;44046;-69
2021/12/15 04:05:58;;;;;;;4.53;4.37;;;16.60;67.60;;;;;;5046937;28;44037;-70
2021/12/15 04:08:28;;;;;;;4.30;4.20;;;16.60;67.60;;;;;;5047333;28;44024;-70
2021/12/15 04:10:58;;;;;;;4.30;4.20;;;16.60;67.70;;;;;;5047753;28;43855;-70
2021/12/15 04:13:26;;;;;;;4.50;4.40;;;16.60;67.70;;;;;;5047307;28;44278;-70
2021/12/15 04:15:57;;;;;;;4.90;4.70;;;16.60;67.70;;;;;;5047599;28;44024;-70
2021/12/15 04:18:26;;;;;;;4.87;4.67;;;16.60;67.90;;;;;;5047560;28;43960;-69
2021/12/15 04:20:54;;;;;;;4.40;4.30;;;16.70;67.60;;;;;;5047689;28;43926;-70
2021/12/15 04:23:22;;;;;;;4.47;4.27;;;16.90;67.20;;;;;;5047333;28;44979;-71
2021/12/15 04:25:51;;;;;;;4.33;4.23;;;17.00;66.70;;;;;;5047199;28;43964;-70
2021/12/15 04:28:22;;;;;;;4.10;4.00;;;17.10;66.30;;;;;;5029136;28;43936;-70
2021/12/15 04:30:53;;;;;;;4.40;4.30;;;17.20;66.00;;;;;;5048046;28;43926;-70
2021/12/15 04:33:24;;;;;;;4.20;4.10;;;17.10;65.90;;;;;;5040766;28;43996;-70
2021/12/15 04:35:54;;;;;;;4.20;4.10;;;17.10;66.10;;;;;;5041129;28;44016;-70
2021/12/15 04:38:22;;;;;;;4.53;4.33;;;17.00;66.30;;;;;;5047150;28;44058;-69
2021/12/15 04:40:50;;;;;;;4.30;4.20;;;16.90;67.30;;;;;;5047558;28;44049;-70
2021/12/15 04:43:19;;;;;;;4.07;3.97;;;16.90;66.80;;;;;;5046797;28;44824;-70
2021/12/15 04:45:47;;;;;;;4.37;4.27;;;16.80;66.90;;;;;;5046797;28;43887;-70
2021/12/15 04:48:16;;;;;;;4.17;4.07;;;16.80;67.10;;;;;;5046817;28;43954;-70
2021/12/15 04:50:44;;;;;;;4.17;4.07;;;16.70;67.20;;;;;;5047144;28;44187;-70
2021/12/15 04:53:12;;;;;;;4.10;4.00;;;16.70;67.30;;;;;;5046555;28;44028;-71
2021/12/15 04:55:40;;;;;;;4.90;4.70;;;16.70;67.40;;;;;;5028714;28;45122;-71
2021/12/15 04:58:09;;;;;;;5.07;4.77;;;16.70;67.60;;;;;;5046624;28;43980;-70
2021/12/15 05:00:44;;;;;;;5.10;4.70;;;16.70;67.40;;;;;;5046692;28;43359;-70
2021/12/15 05:03:12;;;;;;;4.97;4.73;;;16.80;67.00;;;;;;5046758;28;43942;-70
2021/12/15 05:05:40;;;;;;;4.93;4.50;;;16.90;66.80;;;;;;5045816;28;44095;-70
2021/12/15 05:08:09;;;;;;;5.27;4.87;;;16.90;66.80;;;;;;5046464;28;43988;-71
2021/12/15 05:10:37;;;;;;;5.87;5.37;;;16.80;66.90;;;;;;5047134;28;43992;-70
2021/12/15 05:13:05;;;;;;;5.73;5.23;;;16.80;67.10;;;;;;5028141;28;46357;-70
2021/12/15 05:15:33;;;;;;;6.10;5.60;;;16.70;67.10;;;;;;5046395;28;43850;-70
2021/12/15 05:18:03;;;;;;;7.10;5.73;;;16.70;67.30;;;;;;5046434;28;44022;-70
2021/12/15 05:20:33;;;;;;;6.33;5.77;;;16.70;67.40;;;;;;5028941;28;43763;-69
2021/12/15 05:23:02;;;;;;;6.63;5.93;;;16.60;68.10;;;;;;5046294;28;43924;-70
2021/12/15 05:25:30;;;;;;;7.37;6.30;;;16.60;67.50;;;;;;5046367;28;43402;-70
2021/12/15 05:27:58;;;;;;;6.77;6.00;;;16.60;67.60;;;;;;5046369;28;43952;-69
2021/12/15 05:30:26;;;;;;;7.20;6.13;;;16.60;67.60;;;;;;5046709;28;44100;-70
2021/12/15 05:32:54;;;;;;;7.47;6.77;;;16.60;67.70;;;;;;5046314;28;43981;-70
2021/12/15 05:35:24;;;;;;;11.77;7.17;;;16.60;67.70;;;;;;5046449;28;43957;-70
2021/12/15 05:37:54;;;;;;;8.33;6.17;;;16.60;67.80;;;;;;5046634;28;43978;-69
2021/12/15 05:40:22;;;;;;;7.67;6.83;;;16.70;67.50;;;;;;5050547;28;44247;-70
2021/12/15 05:42:50;;;;;;;9.70;6.73;;;16.90;67.10;;;;;;5049938;28;44966;-69
2021/12/15 05:45:18;;;;;;;8.37;6.43;;;17.00;66.70;;;;;;5049765;28;43889;-70
2021/12/15 05:47:46;;;;;;;9.43;6.50;;;17.10;66.20;;;;;;5049858;28;43335;-70
2021/12/15 05:50:14;;;;;;;9.33;6.60;;;17.20;66.70;;;;;;5049842;28;44004;-69
2021/12/15 05:52:44;;;;;;;6.27;5.67;;;17.10;66.00;;;;;;5049470;28;44830;-70
2021/12/15 05:55:13;;;;;;;6.13;5.53;;;17.10;66.20;;;;;;5049462;28;43278;-70
2021/12/15 05:57:41;;;;;;;7.17;6.30;;;17.00;66.40;;;;;;5049673;28;43451;-70
2021/12/15 06:00:11;;;;;;;8.03;6.60;;;16.90;66.60;;;;;;5049829;28;44180;-70
2021/12/15 06:02:39;;;;;;;7.50;5.63;;;16.90;66.80;;;;;;5049212;28;44004;-70
2021/12/15 06:05:08;;;;;;;6.43;5.80;;;16.80;66.90;;;;;;5048642;28;43699;-69
2021/12/15 06:07:37;;;;;;;7.13;5.67;;;16.80;67.20;;;;;;5049479;28;43917;-69
2021/12/15 06:10:07;;;;;;;6.17;5.67;;;16.70;67.10;;;;;;5049810;28;43868;-70
2021/12/15 06:12:35;;;;;;;6.43;5.67;;;16.70;67.30;;;;;;5049183;28;43908;-70
2021/12/15 06:15:03;;;;;;;9.07;5.90;;;16.70;67.40;;;;;;5049054;28;43460;-71
2021/12/15 06:17:31;;;;;;;9.47;6.17;;;16.70;67.40;;;;;;5049199;28;43967;-69
2021/12/15 06:19:59;;;;;;;6.43;5.70;;;16.80;67.20;;;;;;5049609;28;43851;-70
2021/12/15 06:22:29;;;;;;;6.97;6.10;;;16.90;66.80;;;;;;5049001;28;43923;-69
2021/12/15 06:24:57;;;;;;;6.57;5.97;;;16.90;66.60;;;;;;5048836;28;44097;-69
2021/12/15 06:27:29;;;;;;;5.90;5.40;;;16.90;67.40;;;;;;5049074;28;43926;-70
2021/12/15 06:29:57;;;;;;;6.23;5.67;;;16.90;67.50;;;;;;5049693;28;43906;-70
2021/12/15 06:32:25;;;;;;;6.07;5.57;;;16.80;66.90;;;;;;5030802;28;45702;-69
2021/12/15 06:34:53;;;;;;;6.20;5.70;;;16.80;67.10;;;;;;5030870;28;45266;-70
2021/12/15 06:37:21;;;;;;;5.73;5.23;;;16.70;67.20;;;;;;5049020;28;43989;-70
2021/12/15 06:39:49;;;;;;;5.33;4.93;;;16.70;67.40;;;;;;5049277;28;44015;-69
2021/12/15 06:42:17;;;;;;;6.23;5.63;;;16.60;67.40;;;;;;5048786;28;43772;-70
2021/12/15 06:44:47;;;;;;;6.67;5.40;;;16.60;68.20;;;;;;5048915;28;43501;-70
2021/12/15 06:47:44;;;;;;;5.80;5.40;;;16.60;67.60;;;;;;5048718;28;43964;-70
2021/12/15 06:58:30;;;;;;;5.30;4.90;;;16.70;67.60;;;;;;5048779;28;44042;-70
2021/12/15 07:01:01;;;;;;;5.40;4.90;;;16.80;67.20;;;;;;5048931;28;44020;-71
2021/12/15 07:03:29;;;;;;;6.83;5.60;;;17.00;66.70;;;;;;5048907;28;43970;-70
2021/12/15 07:05:57;;;;;;;5.53;5.13;;;17.10;66.30;;;;;;5047907;28;43663;-70
2021/12/15 07:08:26;;;;;;;6.17;5.57;;;17.10;66.00;;;;;;5048715;28;43436;-70
2021/12/15 07:10:55;;;;;;;5.40;5.00;;;17.10;66.00;;;;;;5048823;28;43869;-70
2021/12/15 07:13:23;;;;;;;5.33;4.87;;;17.00;66.10;;;;;;5030404;28;44030;-70
2021/12/15 07:15:59;;;;;;;5.07;4.57;;;17.00;66.40;;;;;;5048516;28;43988;-70
2021/12/15 07:18:38;;;;;;;6.00;5.23;;;16.90;66.60;;;;;;5048424;28;43980;-70
2021/12/15 07:21:09;;;;;;;5.40;5.00;;;16.90;66.80;;;;;;5048855;28;43992;-70
2021/12/15 07:23:37;;;;;;;5.20;4.70;;;16.80;66.90;;;;;;5029805;28;44012;-70
2021/12/15 07:26:06;;;;;;;5.67;5.23;;;16.80;67.10;;;;;;5047637;28;44007;-70
2021/12/15 07:28:34;;;;;;;4.23;4.03;;;16.70;67.10;;;;;;5047850;28;44039;-70
2021/12/15 07:31:02;;;;;;;5.13;4.73;;;16.70;67.30;;;;;;5048140;28;43476;-71
2021/12/15 07:33:32;;;;;;;5.13;4.83;;;16.70;67.40;;;;;;5029344;28;45310;-70
2021/12/15 07:36:00;;;;;;;5.20;4.80;;;16.70;67.40;;;;;;5047225;28;44087;-69
2021/12/15 07:38:28;;;;;;;5.23;4.83;;;16.80;67.00;;;;;;5047743;28;43748;-70
2021/12/15 07:40:56;;;;;;;4.80;4.50;;;16.90;66.70;;;;;;5048014;28;44072;-70
2021/12/15 07:43:27;;;;;;;4.93;4.47;;;16.90;66.60;;;;;;5047482;28;43886;-69
2021/12/15 07:45:58;;;;;;;4.90;4.50;;;16.90;66.70;;;;;;5047624;28;43418;-70
2021/12/15 07:48:28;;;;;;;5.47;4.97;;;16.90;66.90;;;;;;5047752;28;43406;-70
2021/12/15 07:50:59;;;;;;;5.20;4.80;;;16.80;66.90;;;;;;5047816;28;43425;-69
2021/12/15 07:53:27;;;;;;;4.70;4.30;;;16.80;67.10;;;;;;5047384;28;43905;-70
2021/12/15 07:55:55;;;;;;;5.27;4.97;;;16.70;67.10;;;;;;5029020;28;45725;-69
2021/12/15 07:58:24;;;;;;;5.30;4.90;;;16.70;67.30;;;;;;5047640;28;43967;-69
2021/12/15 08:00:53;;;;;;;5.40;5.00;;;16.70;67.40;;;;;;5047906;28;43948;-70
2021/12/15 08:03:21;;;;;;;5.07;4.73;;;16.60;67.50;;;;;;5029191;28;45687;-70
2021/12/15 08:05:50;;;;;;;5.20;4.63;;;16.60;67.50;;;;;;5046516;28;43956;-70
2021/12/15 08:08:20;;;;;;;5.00;4.60;;;16.60;67.50;;;;;;5047125;28;43399;-71
2021/12/15 08:10:48;;;;;;;4.80;4.50;;;16.60;67.60;;;;;;5047430;28;43592;-70
2021/12/15 08:13:17;;;;;;;4.90;4.60;;;16.60;67.70;;;;;;5028794;28;46041;-70
2021/12/15 08:15:45;;;;;;;4.97;4.67;;;16.70;67.70;;;;;;5028746;28;45060;-70
2021/12/15 08:18:13;;;;;;;5.27;4.67;;;16.80;67.30;;;;;;5047017;28;43954;-70
2021/12/15 08:20:41;;;;;;;5.07;4.67;;;17.00;67.00;;;;;;5047464;28;43874;-69
2021/12/15 08:23:09;;;;;;;5.10;4.80;;;17.00;66.30;;;;;;5046777;28;43966;-69
2021/12/15 08:25:39;;;;;;;4.87;4.50;;;17.10;66.10;;;;;;5046943;28;44036;-70
2021/12/15 08:28:08;;;;;;;4.53;4.20;;;17.10;66.00;;;;;;5028639;28;43905;-70
2021/12/15 08:30:36;;;;;;;4.43;4.13;;;17.00;66.10;;;;;;5047215;28;43457;-70
2021/12/15 08:33:05;;;;;;;4.40;4.20;;;17.00;66.40;;;;;;5046786;28;43786;-70
2021/12/15 08:35:34;;;;;;;4.97;4.57;;;16.90;66.60;;;;;;5046655;28;43533;-70
2021/12/15 08:38:03;;;;;;;4.63;4.33;;;16.80;66.80;;;;;;5046540;28;43957;-70
2021/12/15 08:40:31;;;;;;;4.70;4.40;;;16.80;67.00;;;;;;5047190;28;44073;-70
2021/12/15 08:43:00;;;;;;;4.87;4.33;;;16.80;67.30;;;;;;5046593;28;43872;-70
2021/12/15 08:45:28;;;;;;;4.57;4.27;;;16.70;67.90;;;;;;5046424;28;43930;-70
2021/12/15 08:48:01;;;;;;;4.63;4.43;;;16.70;67.40;;;;;;5046846;28;44190;-69
2021/12/15 08:50:30;;;;;;;4.10;3.90;;;16.70;67.40;;;;;;5028750;28;44009;-71
2021/12/15 08:52:58;;;;;;;3.93;3.73;;;16.60;67.50;;;;;;5046390;28;44000;-69
2021/12/15 08:55:26;;;;;;;4.43;4.13;;;16.70;67.50;;;;;;5046272;28;43885;-70
2021/12/15 08:57:57;;;;;;;4.67;4.23;;;16.80;67.20;;;;;;5046410;28;43968;-71
2021/12/15 09:00:26;;;;;;;4.73;4.43;;;16.90;66.90;;;;;;5047096;28;43910;-70
2021/12/15 09:02:55;;;;;;;4.33;4.13;;;16.90;66.80;;;;;;5046201;28;44008;-70
2021/12/15 09:05:24;;;;;;;4.13;3.87;;;16.90;66.90;;;;;;5039427;28;43953;-70
2021/12/15 09:07:53;;;;;;;4.53;4.20;;;16.80;66.90;;;;;;5040021;28;44112;-70
2021/12/15 09:10:21;;;;;;;4.30;4.10;;;16.80;67.10;;;;;;5040425;28;43941;-71
2021/12/15 09:12:49;;;;;;;4.23;4.00;;;16.70;67.20;;;;;;5039595;28;45376;-70
2021/12/15 09:15:17;;;;;;;4.33;4.00;;;16.70;67.30;;;;;;5046164;28;44062;-70
2021/12/15 09:17:47;;;;;;;4.43;4.17;;;16.70;67.50;;;;;;5046181;28;43425;-70
2021/12/15 09:20:17;;;;;;;4.33;4.03;;;16.60;67.50;;;;;;5046315;28;44037;-70
2021/12/15 09:22:45;;;;;;;4.30;4.10;;;16.60;67.60;;;;;;5045860;28;45107;-69
2021/12/15 09:25:13;;;;;;;4.37;4.10;;;16.60;67.70;;;;;;5046000;28;43971;-70
2021/12/15 09:27:43;;;;;;;4.43;4.10;;;16.60;67.70;;;;;;5045806;28;44051;-70
2021/12/15 09:30:12;;;;;;;4.57;4.27;;;16.60;67.80;;;;;;5046398;28;44110;-71
2021/12/15 09:32:40;;;;;;;4.17;3.97;;;16.60;67.90;;;;;;5045841;28;44954;-69
2021/12/15 09:35:10;;;;;;;4.10;3.90;;;16.60;67.70;;;;;;5045671;28;43994;-70
2021/12/15 09:37:38;;;;;;;4.07;3.90;;;16.80;67.40;;;;;;5045794;28;43930;-70
2021/12/15 09:40:07;;;;;;;4.20;4.00;;;16.90;66.90;;;;;;5046349;28;43380;-70
2021/12/15 09:42:38;;;;;;;3.97;3.77;;;17.00;66.40;;;;;;5045635;28;43968;-70
2021/12/15 09:45:25;;;;;;;4.10;3.90;;;17.10;66.20;;;;;;5046041;28;43468;-70
2021/12/15 09:48:16;;;;;;;4.40;4.20;;;17.10;66.00;;;;;;5046205;28;43997;-70
2021/12/15 09:56:48;;;;;;;4.23;4.03;;;16.90;66.80;;;;;;5045705;28;43980;-69
2021/12/15 10:02:16;;;;;;;3.90;3.70;;;16.70;67.10;;;;;;5046209;28;43965;-70
2021/12/15 10:04:54;;;;;;;3.90;3.70;;;16.70;67.40;;;;;;5040003;28;44825;-71
2021/12/15 10:10:40;;;;;;;4.03;3.83;;;16.60;67.40;;;;;;5045672;28;44053;-70
2021/12/15 10:18:38;;;;;;;4.17;3.97;;;16.80;67.10;;;;;;5038897;28;43953;-70
2021/12/15 10:21:06;;;;;;;3.53;3.43;;;16.80;66.90;;;;;;5019158;28;43354;-70
2021/12/15 10:23:39;;;;;;;3.90;3.70;;;16.80;67.00;;;;;;5045704;28;43965;-71
2021/12/15 10:26:07;;;;;;;4.47;4.27;;;16.80;67.10;;;;;;5048613;28;43612;-70
2021/12/15 10:28:38;;;;;;;3.70;3.53;;;16.80;67.30;;;;;;5030416;28;45443;-70
2021/12/15 10:31:07;;;;;;;3.67;3.57;;;16.70;67.40;;;;;;5048900;28;43870;-71
2021/12/15 10:33:37;;;;;;;4.07;3.87;;;16.70;67.50;;;;;;5030817;28;43981;-70
2021/12/15 10:36:06;;;;;;;3.97;3.77;;;16.60;67.60;;;;;;5048247;28;43733;-70
2021/12/15 10:38:40;;;;;;;3.77;3.67;;;16.60;67.70;;;;;;5030291;28;45030;-70
2021/12/15 10:41:09;;;;;;;3.50;3.40;;;16.60;67.70;;;;;;5048759;28;43992;-70
2021/12/15 10:43:39;;;;;;;4.03;3.83;;;16.60;67.80;;;;;;5049028;28;43888;-70
2021/12/15 10:46:08;;;;;;;3.90;3.70;;;16.60;67.90;;;;;;5048289;28;44017;-70
2021/12/15 10:48:44;;;;;;;4.37;4.07;;;16.60;68.00;;;;;;5048310;28;43642;-69
2021/12/15 10:51:28;;;;;;;3.53;3.43;;;16.60;68.00;;;;;;5048672;28;43893;-70
2021/12/15 10:53:58;;;;;;;3.97;3.77;;;16.60;67.90;;;;;;5048938;28;43886;-70
2021/12/15 10:56:28;;;;;;;3.70;3.60;;;16.70;67.50;;;;;;5048469;28;43996;-70
2021/12/15 10:58:59;;;;;;;3.50;3.40;;;16.90;67.20;;;;;;5048047;28;44107;-69
2021/12/15 11:01:48;;;;;;;3.97;3.77;;;17.00;66.60;;;;;;5048329;28;44070;-70
2021/12/15 11:04:37;;;;;;;3.63;3.43;;;17.10;66.30;;;;;;5048242;28;43832;-69
2021/12/15 11:07:24;;;;;;;4.13;3.93;;;17.00;66.20;;;;;;5029853;28;45703;-70
2021/12/15 11:09:56;;;;;;;3.53;3.43;;;17.00;66.50;;;;;;5048369;28;43984;-69
2021/12/15 11:12:26;;;;;;;3.30;3.20;;;16.90;66.80;;;;;;5048522;28;43886;-69
2021/12/15 11:14:56;;;;;;;3.57;3.47;;;16.80;66.90;;;;;;5048465;28;43978;-71
2021/12/15 11:17:25;;;;;;;3.60;3.40;;;16.80;67.20;;;;;;5047799;28;44073;-70
2021/12/15 11:19:59;;;;;;;3.60;3.50;;;16.70;67.30;;;;;;5048068;28;43997;-70
2021/12/15 11:22:41;;;;;;;3.90;3.80;;;16.70;67.40;;;;;;5048293;28;43919;-70
2021/12/15 11:25:13;;;;;;;3.70;3.57;;;16.70;67.50;;;;;;5048476;28;43992;-69
2021/12/15 11:27:41;;;;;;;3.70;3.50;;;16.60;67.60;;;;;;5047839;28;43964;-69
2021/12/15 11:30:12;;;;;;;3.80;3.70;;;16.60;67.70;;;;;;5047762;28;43963;-69
2021/12/15 11:32:44;;;;;;;3.80;3.50;;;16.60;67.80;;;;;;5048092;28;44059;-70
2021/12/15 11:35:15;;;;;;;3.57;3.47;;;16.70;67.50;;;;;;5048212;28;43857;-70
2021/12/15 11:37:45;;;;;;;3.60;3.43;;;16.80;67.20;;;;;;5046690;28;43921;-70
2021/12/15 11:40:15;;;;;;;3.10;3.00;;;16.80;67.00;;;;;;5047521;28;43950;-70
2021/12/15 11:42:43;;;;;;;3.33;3.23;;;16.80;67.20;;;;;;5029408;28;44060;-70
2021/12/15 11:45:12;;;;;;;3.67;3.47;;;16.80;67.30;;;;;;5029763;28;43961;-70
2021/12/15 11:47:40;;;;;;;3.17;3.07;;;16.70;67.40;;;;;;5029029;28;45922;-69
2021/12/15 11:50:10;;;;;;;3.40;3.30;;;16.70;67.60;;;;;;5047391;28;43988;-70
2021/12/15 11:52:40;;;;;;;3.80;3.60;;;16.60;67.70;;;;;;5047490;28;43352;-70
2021/12/15 11:55:08;;;;;;;3.37;3.23;;;16.60;67.80;;;;;;5047762;28;43954;-70
2021/12/15 11:57:37;;;;;;;3.33;3.23;;;16.60;67.90;;;;;;5028789;28;46951;-70
2021/12/15 12:00:08;;;;;;;3.40;3.30;;;16.60;68.00;;;;;;5029072;28;44681;-70
2021/12/15 12:02:39;;;;;;;3.50;3.40;;;16.60;68.00;;;;;;5047591;28;43404;-70
2021/12/15 12:05:09;;;;;;;3.40;3.30;;;16.60;68.10;;;;;;5046988;28;43818;-70
2021/12/15 12:07:38;;;;;;;3.23;3.13;;;16.50;68.00;;;;;;5028685;28;45605;-69
2021/12/15 12:10:09;;;;;;;3.27;3.17;;;16.50;68.20;;;;;;5047062;28;43878;-69
2021/12/15 12:12:50;;;;;;;3.27;3.17;;;16.60;68.00;;;;;;5047515;28;43486;-69
2021/12/15 12:15:18;;;;;;;3.30;3.20;;;16.80;67.70;;;;;;5047733;28;43913;-70
2021/12/15 12:17:48;;;;;;;3.00;2.90;;;16.90;67.20;;;;;;5046619;28;43878;-69
2021/12/15 12:20:17;;;;;;;3.27;3.07;;;17.10;66.80;;;;;;5046766;28;43956;-69
2021/12/15 12:22:46;;;;;;;3.60;3.40;;;17.10;66.50;;;;;;5047000;28;43383;-69
2021/12/15 12:25:15;;;;;;;3.20;3.10;;;17.00;66.40;;;;;;5047289;28;43497;-70
2021/12/15 12:27:45;;;;;;;3.30;3.20;;;17.00;66.70;;;;;;5046707;28;43827;-70
2021/12/15 12:30:15;;;;;;;3.10;3.00;;;16.90;66.90;;;;;;5028643;28;44085;-69
2021/12/15 12:32:44;;;;;;;3.03;2.93;;;16.80;67.00;;;;;;5046863;28;43913;-70
2021/12/15 12:35:12;;;;;;;3.27;3.17;;;16.80;67.30;;;;;;5047133;28;43953;-70
2021/12/15 12:37:43;;;;;;;2.83;2.80;;;16.70;67.40;;;;;;5046515;28;43945;-70
2021/12/15 12:40:17;;;;;;;3.23;3.13;;;16.70;67.60;;;;;;5046676;28;43775;-70
2021/12/15 12:42:46;;;;;;;3.00;2.90;;;16.70;67.70;;;;;;5047138;28;43286;-70
2021/12/15 12:45:19;;;;;;;2.83;2.73;;;16.60;67.80;;;;;;5046965;28;43986;-69
2021/12/15 12:48:03;;;;;;;3.17;3.07;;;16.60;67.90;;;;;;5046535;28;45121;-70
2021/12/15 12:51:05;;;;;;;2.63;2.53;;;16.60;68.00;;;;;;5046711;28;43893;-70
2021/12/15 12:59:30;;;;;;;2.93;2.83;;;17.00;66.90;;;;;;5046504;28;43942;-70
2021/12/15 13:01:59;;;;;;;2.90;2.80;;;17.00;66.70;;;;;;5046575;28;43986;-71
2021/12/15 13:04:39;;;;;;;2.60;2.60;;;16.90;66.90;;;;;;5045493;28;43838;-70
2021/12/15 13:07:07;;;;;;;3.00;2.90;;;16.80;67.10;;;;;;5046955;28;43985;-70
2021/12/15 13:09:50;;;;;;;2.50;2.50;;;16.80;67.30;;;;;;5045735;28;43943;-68
2021/12/15 13:12:23;;;;;;;3.00;2.90;;;16.70;67.50;;;;;;5046459;28;43953;-69
2021/12/15 13:14:54;;;;;;;2.90;2.80;;;16.70;67.70;;;;;;5046473;28;43447;-69
2021/12/15 13:17:26;;;;;;;2.47;2.37;;;16.70;67.70;;;;;;5046881;28;43921;-70
2021/12/15 13:19:54;;;;;;;2.53;2.53;;;16.60;67.70;;;;;;5046253;28;43960;-70
2021/12/15 13:22:32;;;;;;;2.70;2.60;;;16.60;67.80;;;;;;5028159;28;44373;-70
2021/12/15 13:30:40;;;;;;;2.80;2.70;;;16.60;68.00;;;;;;5046031;28;44054;-70
2021/12/15 13:33:14;;;;;;;2.70;2.60;;;16.70;67.60;;;;;;5028028;28;45196;-70
2021/12/15 13:35:48;;;;;;;2.50;2.50;;;16.80;67.30;;;;;;5046345;28;43987;-71
2021/12/15 13:38:18;;;;;;;2.70;2.60;;;16.80;67.20;;;;;;5046345;28;43971;-70
2021/12/15 13:40:59;;;;;;;2.87;2.77;;;16.80;67.40;;;;;;5045713;28;44941;-70
2021/12/15 13:43:35;;;;;;;2.80;2.70;;;16.70;67.50;;;;;;5046085;28;44022;-69
2021/12/15 13:46:04;;;;;;;2.50;2.40;;;16.70;67.70;;;;;;5046182;28;43404;-70
2021/12/15 13:49:01;;;;;;;2.80;2.70;;;16.60;67.80;;;;;;5046058;28;43964;-70
2021/12/15 13:51:55;;;;;;;2.40;2.30;;;16.60;68.70;;;;;;5045557;28;43760;-70
2021/12/15 13:54:25;;;;;;;2.83;2.73;;;16.60;68.10;;;;;;5045789;28;44015;-70
2021/12/15 13:56:54;;;;;;;2.40;2.40;;;16.50;68.10;;;;;;5027004;28;44040;-69
2021/12/15 13:59:29;;;;;;;2.70;2.60;;;16.50;68.20;;;;;;5028977;28;44120;-71
2021/12/15 14:02:12;;;;;;;2.40;2.40;;;16.50;68.20;;;;;;5049236;28;43967;-70
2021/12/15 14:04:44;;;;;;;2.30;2.30;;;16.50;68.20;;;;;;5048702;28;43938;-71
2021/12/15 14:07:33;;;;;;;2.70;2.60;;;16.50;68.40;;;;;;5049520;28;44036;-70
2021/12/15 14:10:04;;;;;;;2.20;2.20;;;16.60;68.40;;;;;;5049756;28;43452;-70